Forrest Airport


Codes: YFRT/FOS
Name: Forrest Airport
City:
Country: Australia
Elevation: 511 ft.
Wikipedia:

Photos at Forrest Airport


   Photos courtesy of SpottingLog. You can add your own sightings and photos by signing up for a free trial today.



No photos found.

Weather at Forrest Airport


Time (UTC)DescriptionTempratureWindCloud coverageVisibilityPressureHumidity
21-Jun-2024 12:00Broken Clouds13°C9 mph, NE70%10000m1027hPa71%
21-Jun-2024 15:00Broken Clouds13°C7 mph, NE64%10000m1027hPa67%
21-Jun-2024 18:00Broken Clouds12°C9 mph, NE61%10000m1027hPa69%
21-Jun-2024 21:00Broken Clouds10°C9 mph, NE57%10000m1027hPa71%
22-Jun-2024 00:00Broken Clouds12°C13 mph, NE63%10000m1027hPa65%
22-Jun-2024 03:00Overcast Clouds17°C18 mph, N100%10000m1025hPa44%
22-Jun-2024 06:00Broken Clouds20°C18 mph, N53%10000m1021hPa33%
22-Jun-2024 09:00Clear Sky16°C11 mph, N2%10000m1021hPa38%
22-Jun-2024 12:00Clear Sky14°C11 mph, N1%10000m1021hPa42%
22-Jun-2024 15:00Clear Sky13°C11 mph, N0%10000m1020hPa43%
22-Jun-2024 18:00Few Clouds15°C11 mph, NW22%10000m1019hPa37%
22-Jun-2024 21:00Scattered Clouds12°C13 mph, SW25%10000m1021hPa74%
23-Jun-2024 00:00Few Clouds12°C16 mph, SW23%10000m1022hPa54%
23-Jun-2024 03:00Clear Sky15°C16 mph, SW0%10000m1021hPa39%
23-Jun-2024 06:00Clear Sky16°C18 mph, SW1%10000m1020hPa38%
23-Jun-2024 09:00Few Clouds14°C13 mph, SW18%10000m1021hPa42%
23-Jun-2024 12:00Few Clouds12°C16 mph, SW19%10000m1022hPa57%
23-Jun-2024 15:00Clear Sky11°C16 mph, SW7%10000m1022hPa69%
23-Jun-2024 18:00Clear Sky9°C11 mph, W6%10000m1021hPa74%
23-Jun-2024 21:00Clear Sky9°C13 mph, SW6%10000m1021hPa72%
24-Jun-2024 00:00Clear Sky10°C13 mph, W9%10000m1022hPa73%
24-Jun-2024 03:00Few Clouds15°C18 mph, SW12%10000m1020hPa43%
24-Jun-2024 06:00Light Rain13°C20 mph, SW39%10000m1019hPa53%
24-Jun-2024 09:00Light Rain12°C16 mph, SW51%10000m1019hPa67%
24-Jun-2024 12:00Light Rain10°C9 mph, SW55%10000m1020hPa84%
24-Jun-2024 15:00Few Clouds8°C9 mph, SW15%10000m1020hPa86%
24-Jun-2024 18:00Few Clouds8°C9 mph, SW12%10000m1019hPa85%
24-Jun-2024 21:00Clear Sky7°C11 mph, W10%10000m1018hPa82%
25-Jun-2024 00:00Clear Sky9°C16 mph, W9%10000m1019hPa73%
25-Jun-2024 03:00Clear Sky14°C18 mph, SW10%10000m1017hPa50%
25-Jun-2024 06:00Broken Clouds14°C18 mph, W51%10000m1015hPa46%
25-Jun-2024 09:00Overcast Clouds12°C13 mph, SW92%10000m1016hPa56%
25-Jun-2024 12:00Overcast Clouds12°C7 mph, W96%10000m1017hPa57%
25-Jun-2024 15:00Scattered Clouds10°C9 mph, W39%10000m1018hPa69%
25-Jun-2024 18:00Scattered Clouds9°C9 mph, W25%10000m1018hPa65%
25-Jun-2024 21:00Clear Sky8°C9 mph, W8%10000m1018hPa75%
26-Jun-2024 00:00Clear Sky10°C9 mph, NW6%10000m1019hPa57%
26-Jun-2024 03:00Clear Sky15°C11 mph, NW1%10000m1018hPa38%
26-Jun-2024 06:00Scattered Clouds16°C9 mph, NW26%10000m1016hPa32%
26-Jun-2024 09:00Scattered Clouds13°C7 mph, NW41%10000m1017hPa37%